Time;durP1;ratioP1;P1;durP2;ratioP2;P2;SDS_P1;SDS_P2;PMS_P1;PMS_P2;Temp;Humidity;BMP_temperature;BMP_pressure;BME280_temperature;BME280_humidity;BME280_pressure;Samples;Min_cycle;Max_cycle;Signal;HPM_P1;HPM_P2
2022/05/31 00:00:47;;;;;;;8.97;3.87;;;7.30;99.90;;;;;;4823166;29;20053;-86
2022/05/31 00:17:13;;;;;;;9.20;3.95;;;7.60;99.90;;;;;;5234789;23;20503;-86
2022/05/31 00:19:39;;;;;;;8.83;4.10;;;7.70;99.90;;;;;;4822438;29;20057;-86
2022/05/31 00:22:09;;;;;;;8.98;4.05;;;7.70;99.90;;;;;;4822470;29;20042;-87
2022/05/31 00:24:36;;;;;;;9.07;3.83;;;7.70;99.90;;;;;;4822835;29;20129;-86
2022/05/31 00:27:04;;;;;;;10.82;4.20;;;7.80;99.90;;;;;;5051838;23;20065;-86
2022/05/31 00:29:31;;;;;;;9.57;4.03;;;7.80;99.90;;;;;;4824053;29;20050;-86
2022/05/31 00:31:59;;;;;;;9.77;4.13;;;7.80;99.90;;;;;;4822070;29;20107;-86
2022/05/31 00:34:26;;;;;;;10.40;4.00;;;7.80;99.90;;;;;;4822259;29;20054;-86
2022/05/31 00:36:51;;;;;;;10.48;3.92;;;7.90;99.90;;;;;;4822229;29;20110;-86
2022/05/31 00:39:18;;;;;;;8.87;3.90;;;7.90;99.90;;;;;;4822890;29;20054;-86
2022/05/31 00:42:12;;;;;;;8.67;4.00;;;7.90;99.90;;;;;;4821728;29;20491;-86
2022/05/31 00:44:38;;;;;;;8.75;3.67;;;7.90;99.90;;;;;;4822920;29;20129;-86
2022/05/31 00:47:09;;;;;;;7.50;3.20;;;8.00;99.90;;;;;;4823577;29;20047;-86
2022/05/31 00:49:43;;;;;;;8.80;3.80;;;8.10;99.90;;;;;;4821882;29;20081;-86
2022/05/31 00:52:14;;;;;;;;;;;8.00;99.90;;;;;;4831198;29;20513;-86
2022/05/31 00:54:48;;;;;;;10.93;4.10;;;8.10;99.90;;;;;;4822242;29;20366;-86
2022/05/31 00:57:14;;;;;;;9.00;3.95;;;8.00;99.90;;;;;;4821901;29;20372;-86
2022/05/31 00:59:48;;;;;;;9.18;4.03;;;8.00;99.90;;;;;;4873663;23;20065;-87
2022/05/31 01:02:17;;;;;;;11.65;3.95;;;8.10;99.90;;;;;;4823323;29;20490;-86
2022/05/31 01:04:49;;;;;;;8.98;3.70;;;8.10;99.90;;;;;;4821953;29;20112;-86
2022/05/31 01:07:17;;;;;;;10.13;4.43;;;8.10;99.90;;;;;;4822308;29;20086;-86
2022/05/31 01:09:43;;;;;;;9.32;3.67;;;8.10;99.90;;;;;;4821088;29;20496;-86
2022/05/31 01:12:30;;;;;;;9.48;4.30;;;8.20;99.90;;;;;;4821931;29;20090;-86
2022/05/31 01:18:27;;;;;;;10.07;4.50;;;8.00;99.90;;;;;;4821588;29;20519;-86
2022/05/31 01:21:08;;;;;;;10.80;4.50;;;7.60;99.90;;;;;;4822175;29;20061;-86
2022/05/31 01:27:46;;;;;;;9.95;4.25;;;8.20;99.90;;;;;;4802336;29;20098;-86
2022/05/31 01:30:15;;;;;;;9.27;4.20;;;8.20;99.90;;;;;;4982644;23;20145;-86
2022/05/31 01:32:47;;;;;;;10.40;4.32;;;8.20;99.90;;;;;;4822674;29;20586;-86
2022/05/31 01:35:28;;;;;;;9.60;4.38;;;8.20;99.90;;;;;;4823313;29;20106;-86
2022/05/31 01:38:28;;;;;;;10.23;4.95;;;8.20;99.90;;;;;;4821090;29;20438;-86
2022/05/31 01:48:44;;;;;;;10.70;4.30;;;8.30;99.90;;;;;;4807843;29;20110;-87
2022/05/31 01:54:00;;;;;;;10.02;4.80;;;8.50;99.90;;;;;;4806532;29;20059;-87
2022/05/31 01:57:09;;;;;;;10.32;4.90;;;7.90;99.90;;;;;;4807150;29;20049;-87
2022/05/31 02:00:18;;;;;;;9.63;4.80;;;8.20;99.90;;;;;;4750878;30;20553;-86
2022/05/31 02:10:28;;;;;;;11.15;5.15;;;8.10;99.90;;;;;;4824870;29;20049;-87
2022/05/31 02:13:50;;;;;;;10.80;4.65;;;8.10;99.90;;;;;;4823641;29;20137;-87
2022/05/31 02:20:43;;;;;;;10.82;4.97;;;7.70;99.90;;;;;;4748619;29;20115;-86
2022/05/31 02:23:17;;;;;;;12.13;5.50;;;7.90;99.90;;;;;;4787424;30;20059;-86
2022/05/31 02:30:13;;;;;;;10.07;4.93;;;8.00;99.90;;;;;;4787722;30;20049;-86
2022/05/31 02:32:51;;;;;;;12.50;4.72;;;7.90;99.90;;;;;;4719548;30;20466;-86
2022/05/31 02:35:17;;;;;;;9.98;4.80;;;7.80;99.90;;;;;;4732859;30;20554;-86
2022/05/31 02:37:55;;;;;;;12.13;4.80;;;7.70;99.90;;;;;;4719386;30;20141;-86
2022/05/31 02:40:57;;;;;;;10.33;5.30;;;8.10;99.90;;;;;;4719319;30;20072;-87
2022/05/31 02:55:14;;;;;;;9.97;5.03;;;7.80;99.90;;;;;;4834096;29;20544;-87
2022/05/31 02:57:40;;;;;;;11.17;5.60;;;7.30;99.90;;;;;;4827057;29;20088;-87
2022/05/31 03:00:21;;;;;;;11.82;5.70;;;7.70;99.90;;;;;;4826610;29;20498;-86
2022/05/31 03:02:53;;;;;;;11.02;5.38;;;7.70;99.90;;;;;;4843165;29;20065;-86
2022/05/31 03:05:19;;;;;;;11.02;5.55;;;7.70;99.90;;;;;;4826980;29;20609;-87
2022/05/31 03:14:30;;;;;;;11.23;5.40;;;7.90;99.90;;;;;;4839120;23;20050;-86
2022/05/31 03:17:18;;;;;;;11.57;5.85;;;8.00;99.90;;;;;;4824243;29;20061;-87
2022/05/31 03:19:50;;;;;;;10.88;5.75;;;8.00;99.90;;;;;;4814521;29;20476;-86
2022/05/31 03:22:21;;;;;;;11.80;5.70;;;8.00;99.90;;;;;;4825180;29;20069;-87
2022/05/31 03:24:55;;;;;;;12.40;5.90;;;8.00;99.90;;;;;;4822532;29;20057;-87
2022/05/31 03:27:21;;;;;;;10.65;5.40;;;8.00;99.90;;;;;;4823557;29;20411;-86
2022/05/31 03:29:50;;;;;;;11.85;5.35;;;8.00;99.90;;;;;;4822210;29;20042;-87
2022/05/31 03:32:16;;;;;;;11.23;5.80;;;8.10;99.90;;;;;;4823864;29;20522;-87
2022/05/31 03:34:49;;;;;;;11.65;5.50;;;8.10;99.90;;;;;;4824686;29;20444;-86
2022/05/31 03:37:15;;;;;;;11.50;5.68;;;8.20;99.90;;;;;;4824057;29;20054;-86
2022/05/31 03:39:45;;;;;;;12.32;6.22;;;8.10;99.90;;;;;;4824442;29;20432;-86
2022/05/31 03:42:26;;;;;;;12.68;5.90;;;8.10;99.90;;;;;;4824559;29;20115;-86
2022/05/31 03:49:21;;;;;;;11.32;6.13;;;8.20;99.90;;;;;;4824651;29;20142;-87
2022/05/31 03:52:08;;;;;;;11.65;6.05;;;7.60;99.90;;;;;;4822281;29;20407;-86
2022/05/31 03:54:36;;;;;;;11.13;5.93;;;8.70;99.90;;;;;;4824159;29;20046;-86
2022/05/31 03:57:23;;;;;;;11.70;6.07;;;8.60;99.90;;;;;;4824495;29;20094;-86
2022/05/31 04:00:15;;;;;;;10.18;5.68;;;8.10;99.90;;;;;;4823503;29;20055;-87
2022/05/31 04:24:33;;;;;;;10.65;5.63;;;8.60;99.90;;;;;;4884314;23;20745;-87
2022/05/31 04:30:52;;;;;;;14.05;5.97;;;8.50;99.90;;;;;;4823278;29;20061;-87
2022/05/31 04:37:48;;;;;;;11.18;5.85;;;8.90;99.90;;;;;;4823638;29;20090;-86
2022/05/31 04:40:26;;;;;;;10.27;5.38;;;8.60;99.90;;;;;;4821697;29;20054;-86
2022/05/31 04:43:10;;;;;;;12.20;6.38;;;7.90;99.90;;;;;;4823384;29;20042;-87
2022/05/31 04:46:18;;;;;;;12.27;5.40;;;8.70;99.90;;;;;;4824313;29;20046;-86
2022/05/31 04:49:11;;;;;;;12.68;5.75;;;8.80;99.90;;;;;;4769441;30;20094;-86
2022/05/31 04:51:49;;;;;;;13.68;5.88;;;8.30;99.90;;;;;;4785283;30;20413;-86
2022/05/31 04:54:24;;;;;;;11.45;6.20;;;8.80;99.90;;;;;;4784738;30;20066;-87
2022/05/31 04:57:16;;;;;;;12.45;6.28;;;9.20;99.90;;;;;;4770042;30;20138;-87
2022/05/31 04:59:45;;;;;;;13.13;6.25;;;8.80;99.90;;;;;;4770339;30;20150;-87
2022/05/31 05:02:44;;;;;;;11.00;6.32;;;9.10;99.90;;;;;;4771402;30;20507;-87
2022/05/31 05:09:16;;;;;;;10.50;5.97;;;9.10;99.90;;;;;;5008495;23;20150;-87
2022/05/31 07:23:10;;;;;;;11.50;3.70;;;13.80;99.90;;;;;;4832131;29;20045;-92
2022/05/31 09:18:38;;;;;;;9.85;4.13;;;17.10;99.90;;;;;;5592751;24;20374;31
2022/05/31 09:57:20;;;;;;;9.50;3.40;;;18.40;95.80;;;;;;4749220;30;20055;-87
2022/05/31 09:59:49;;;;;;;9.32;3.00;;;18.20;94.80;;;;;;4751144;30;20417;-86
2022/05/31 10:02:24;;;;;;;11.18;3.70;;;18.00;95.80;;;;;;4739248;30;20102;-85
2022/05/31 10:05:06;;;;;;;8.73;3.40;;;17.70;94.10;;;;;;4742367;30;20063;-84
2022/05/31 10:07:36;;;;;;;8.40;3.00;;;17.70;95.20;;;;;;4741622;30;20047;-85
2022/05/31 10:10:18;;;;;;;9.30;2.88;;;17.70;95.50;;;;;;4742014;30;20105;-85
2022/05/31 10:13:03;;;;;;;9.27;3.30;;;17.70;94.30;;;;;;4740280;30;20052;-87
2022/05/31 10:15:40;;;;;;;9.20;3.03;;;17.70;95.60;;;;;;4745616;30;20142;-85
2022/05/31 10:21:41;;;;;;;8.25;3.25;;;17.70;95.80;;;;;;4743812;30;20053;-86
2022/05/31 10:24:20;;;;;;;8.63;3.60;;;17.60;95.00;;;;;;4736145;30;20049;-84
2022/05/31 10:27:04;;;;;;;7.47;3.25;;;17.60;95.90;;;;;;4739408;30;20053;-85
2022/05/31 10:29:33;;;;;;;8.18;3.42;;;17.60;95.50;;;;;;4717741;30;20063;-84
2022/05/31 10:31:59;;;;;;;8.35;3.00;;;17.60;94.20;;;;;;4718063;30;20379;-84
2022/05/31 10:34:33;;;;;;;8.75;3.13;;;18.00;94.50;;;;;;4720814;30;20487;-85
2022/05/31 10:37:32;;;;;;;9.10;3.38;;;18.20;94.20;;;;;;4744427;24;20119;-85
2022/05/31 10:43:52;;;;;;;7.38;3.10;;;19.60;91.80;;;;;;4749390;30;20059;-86
2022/05/31 10:46:45;;;;;;;7.75;3.15;;;20.10;89.20;;;;;;4734387;30;20056;-90
2022/05/31 10:53:04;;;;;;;7.68;3.17;;;20.30;85.30;;;;;;4732239;30;20072;-84
2022/05/31 10:55:36;;;;;;;;;;;19.90;88.80;;;;;;4778819;24;20044;-85
2022/05/31 10:58:30;;;;;;;9.88;4.25;;;19.80;87.70;;;;;;4730301;30;20303;-85
2022/05/31 11:01:27;;;;;;;9.80;4.00;;;19.50;89.20;;;;;;4734200;24;20060;-86
2022/05/31 11:04:27;;;;;;;10.10;4.15;;;19.10;87.90;;;;;;4726952;30;20092;-84
2022/05/31 11:07:40;;;;;;;9.15;3.70;;;18.80;86.10;;;;;;4724612;30;20053;-84
2022/05/31 11:14:11;;;;;;;10.40;3.50;;;18.30;88.70;;;;;;4726700;30;20102;-85
2022/05/31 11:17:11;;;;;;;8.68;3.60;;;18.20;88.10;;;;;;4723970;30;20057;-85
2022/05/31 11:20:11;;;;;;;10.13;4.22;;;18.10;90.30;;;;;;4723106;30;20053;-84
2022/05/31 11:23:38;;;;;;;9.60;3.90;;;18.10;90.20;;;;;;4723080;30;20085;-86
2022/05/31 11:26:42;;;;;;;9.32;3.80;;;18.20;90.30;;;;;;4721214;30;20045;-85
2022/05/31 11:29:46;;;;;;;9.93;4.15;;;18.00;89.90;;;;;;4738816;24;20117;-87
2022/05/31 11:32:56;;;;;;;10.30;3.83;;;18.00;88.40;;;;;;4734750;30;20079;-84
2022/05/31 11:35:46;;;;;;;8.90;3.60;;;18.00;89.70;;;;;;4717840;30;20813;-86
2022/05/31 11:45:30;;;;;;;9.82;3.75;;;18.20;87.40;;;;;;4734291;30;20051;-87
2022/05/31 11:48:11;;;;;;;10.57;3.60;;;18.20;89.10;;;;;;4733355;30;20064;-84
2022/05/31 11:51:02;;;;;;;10.70;4.00;;;18.50;87.70;;;;;;4734682;30;20071;-84
2022/05/31 11:54:24;;;;;;;9.82;3.50;;;18.20;87.40;;;;;;4735016;30;20055;-84
2022/05/31 11:57:28;;;;;;;10.25;4.22;;;18.40;87.50;;;;;;4732848;30;20068;-85
2022/05/31 12:00:05;;;;;;;;;;;18.30;89.60;;;;;;4734474;30;20605;-85
2022/05/31 12:03:25;;;;;;;8.38;3.72;;;18.50;90.80;;;;;;4734976;30;20023;-85
2022/05/31 12:06:35;;;;;;;9.95;3.88;;;18.50;90.40;;;;;;4731141;30;20100;-83
2022/05/31 12:12:39;;;;;;;9.73;3.78;;;18.60;88.70;;;;;;4717946;30;20525;-86
2022/05/31 12:15:54;;;;;;;10.32;4.10;;;18.70;88.30;;;;;;4718657;30;20067;-89
2022/05/31 12:18:34;;;;;;;10.88;3.83;;;18.70;86.40;;;;;;4731404;30;20057;-86
2022/05/31 12:21:30;;;;;;;10.98;4.28;;;18.70;88.50;;;;;;4731756;30;20059;-86
2022/05/31 12:24:36;;;;;;;9.63;3.78;;;18.70;90.30;;;;;;4727970;30;20053;-88
2022/05/31 12:27:34;;;;;;;9.68;3.78;;;18.80;89.20;;;;;;4728197;30;20049;-86
2022/05/31 12:30:36;;;;;;;10.57;3.53;;;18.70;87.70;;;;;;4722565;30;20053;-86
2022/05/31 12:36:46;;;;;;;9.00;3.80;;;18.40;87.50;;;;;;4743109;24;20566;-86
2022/05/31 12:39:37;;;;;;;9.25;4.10;;;18.70;87.20;;;;;;4721750;30;20109;-87
2022/05/31 12:42:42;;;;;;;10.23;3.80;;;18.50;87.50;;;;;;4733931;30;20110;-86
2022/05/31 12:45:39;;;;;;;10.05;4.20;;;18.50;88.30;;;;;;4732756;30;20505;-87
2022/05/31 12:48:42;;;;;;;9.15;4.18;;;18.50;90.10;;;;;;4732944;30;20081;-86
2022/05/31 12:51:33;;;;;;;9.55;4.03;;;19.10;90.20;;;;;;4735266;30;20056;-86
2022/05/31 12:54:18;;;;;;;9.85;4.40;;;18.70;89.30;;;;;;4735062;30;20056;-86
2022/05/31 12:56:59;;;;;;;8.85;4.10;;;19.30;88.40;;;;;;4734619;30;20049;-86
2022/05/31 13:00:00;;;;;;;10.98;4.28;;;18.50;88.10;;;;;;4733235;30;20056;-86
2022/05/31 13:02:41;;;;;;;10.30;4.95;;;18.30;88.30;;;;;;4734795;30;20059;-86
2022/05/31 13:05:53;;;;;;;10.07;5.00;;;18.20;87.70;;;;;;4734440;30;20058;-86
2022/05/31 13:08:59;;;;;;;10.70;5.15;;;18.20;87.10;;;;;;4729488;30;20060;-87
2022/05/31 13:21:06;;;;;;;9.20;4.70;;;17.50;85.60;;;;;;4711806;30;20095;-87
2022/05/31 13:23:44;;;;;;;10.10;4.50;;;17.50;86.60;;;;;;4739537;30;20101;-87
2022/05/31 13:26:21;;;;;;;10.82;4.40;;;17.40;86.90;;;;;;4739570;30;20052;-86
2022/05/31 13:29:05;;;;;;;11.48;4.70;;;17.50;87.60;;;;;;4736976;30;20059;-86
2022/05/31 13:31:37;;;;;;;10.38;4.82;;;17.50;86.10;;;;;;4738332;30;20052;-87
2022/05/31 13:34:08;;;;;;;9.70;4.38;;;17.70;87.10;;;;;;4735467;30;20517;-88
2022/05/31 13:40:06;;;;;;;10.95;4.75;;;17.70;85.30;;;;;;4743049;30;20089;-88
2022/05/31 14:03:12;;;;;;;9.75;4.65;;;18.60;86.30;;;;;;4726027;30;20040;-89
2022/05/31 14:06:18;;;;;;;10.50;5.07;;;18.70;86.30;;;;;;4727427;30;20055;-88
2022/05/31 14:09:12;;;;;;;10.75;4.70;;;18.80;87.40;;;;;;4725832;30;20072;-87
2022/05/31 14:15:28;;;;;;;10.52;4.75;;;18.90;86.20;;;;;;4723820;30;20067;-89
2022/05/31 14:21:09;;;;;;;9.45;4.75;;;18.90;83.70;;;;;;4943563;24;20437;-88
2022/05/31 14:39:56;;;;;;;;;;;;;;;;;;;;;
2022/05/31 14:46:35;;;;;;;9.77;4.63;;;20.60;80.50;;;;;;4714260;30;20472;-87
2022/05/31 14:49:07;;;;;;;11.52;5.35;;;20.40;81.00;;;;;;4716358;30;20056;-87
2022/05/31 14:51:45;;;;;;;9.73;4.85;;;20.20;82.00;;;;;;4730739;30;20119;-88
2022/05/31 14:54:51;;;;;;;10.02;4.05;;;20.00;80.30;;;;;;4713530;30;20049;-87
2022/05/31 18:54:46;;;;;;;10.27;4.85;;;15.20;93.60;;;;;;5679339;24;20072;-91
2022/05/31 19:16:06;;;;;;;12.02;4.78;;;14.80;96.10;;;;;;4758488;30;20078;-89
2022/05/31 19:23:03;;;;;;;10.98;4.60;;;14.80;97.60;;;;;;4999878;24;20052;-90
2022/05/31 19:26:21;;;;;;;10.32;4.75;;;14.60;98.00;;;;;;4741039;30;20053;-87
2022/05/31 19:39:57;;;;;;;11.05;4.85;;;14.30;99.90;;;;;;4723217;30;20047;-88
2022/05/31 20:02:21;;;;;;;8.50;4.07;;;13.70;99.90;;;;;;4741649;30;20062;-91
2022/05/31 20:11:43;;;;;;;9.73;4.07;;;13.50;99.90;;;;;;4758289;30;20055;-85
2022/05/31 20:17:38;;;;;;;9.43;4.00;;;14.20;99.90;;;;;;4755489;30;20052;-84
2022/05/31 20:20:21;;;;;;;9.23;4.30;;;13.40;99.90;;;;;;4745387;30;20493;-89
2022/05/31 20:23:46;;;;;;;10.80;4.63;;;13.20;99.90;;;;;;4753697;24;20090;-84
2022/05/31 20:27:09;;;;;;;10.13;4.32;;;13.00;99.90;;;;;;4753771;30;20052;-84
2022/05/31 20:30:00;;;;;;;9.35;4.18;;;12.60;99.90;;;;;;4746601;30;20064;-84
2022/05/31 20:32:34;;;;;;;10.10;4.72;;;14.10;99.90;;;;;;4747004;30;20137;-84
2022/05/31 20:35:03;;;;;;;10.40;4.35;;;14.10;99.90;;;;;;4751084;30;20939;-86
2022/05/31 20:37:39;;;;;;;9.45;4.53;;;12.80;99.90;;;;;;4751259;30;20078;-86
2022/05/31 20:40:20;;;;;;;9.57;4.32;;;12.30;99.90;;;;;;4751855;30;20044;-86
2022/05/31 20:42:49;;;;;;;11.00;4.38;;;12.60;99.90;;;;;;4751854;30;22622;-86
2022/05/31 20:45:16;;;;;;;11.02;4.50;;;12.60;99.90;;;;;;4752105;30;20048;-85
2022/05/31 20:47:51;;;;;;;9.38;4.63;;;12.40;99.90;;;;;;4748380;30;20155;-86
2022/05/31 20:50:32;;;;;;;10.52;4.32;;;12.20;99.90;;;;;;4751111;30;20051;-86
2022/05/31 20:53:25;;;;;;;11.05;5.05;;;13.00;99.90;;;;;;4765102;24;20082;-86
2022/05/31 20:56:48;;;;;;;10.07;4.50;;;12.10;99.90;;;;;;4759292;30;20050;-85
2022/05/31 20:59:17;;;;;;;12.20;4.88;;;11.80;99.90;;;;;;4760579;30;20063;-85
2022/05/31 21:01:55;;;;;;;11.00;5.00;;;11.80;99.90;;;;;;4758862;29;20044;-83
2022/05/31 21:04:28;;;;;;;10.93;4.85;;;11.80;99.90;;;;;;4759926;30;20040;-85
2022/05/31 21:06:53;;;;;;;10.85;4.80;;;12.50;99.90;;;;;;4764579;24;20068;-85
2022/05/31 21:12:49;;;;;;;10.10;5.05;;;11.60;99.90;;;;;;4757223;30;20109;-86
2022/05/31 21:15:24;;;;;;;12.23;5.18;;;11.30;99.90;;;;;;4759548;30;20097;-85
2022/05/31 21:18:10;;;;;;;9.63;4.55;;;12.40;99.90;;;;;;4754605;30;20115;-86
2022/05/31 21:20:36;;;;;;;11.00;5.10;;;11.70;99.90;;;;;;4757908;30;20093;-85
2022/05/31 21:23:16;;;;;;;12.20;5.10;;;11.60;99.90;;;;;;4759694;30;20044;-85
2022/05/31 21:25:48;;;;;;;10.93;5.65;;;12.10;99.90;;;;;;4754987;30;20055;-86
2022/05/31 21:28:23;;;;;;;11.05;5.05;;;12.40;99.90;;;;;;4756702;30;20048;-86
2022/05/31 21:30:50;;;;;;;12.10;5.55;;;11.50;99.90;;;;;;4761884;30;20192;-86
2022/05/31 21:33:50;;;;;;;12.20;5.80;;;11.90;99.90;;;;;;4758943;30;20485;-86
2022/05/31 21:36:16;;;;;;;10.75;5.75;;;11.50;99.90;;;;;;4755192;30;20410;-86
2022/05/31 21:41:46;;;;;;;12.73;6.30;;;12.60;99.90;;;;;;4753334;30;20059;-87
2022/05/31 21:44:27;;;;;;;13.35;5.97;;;11.50;99.90;;;;;;4742162;30;20048;-86
2022/05/31 21:47:08;;;;;;;12.23;6.60;;;11.50;99.90;;;;;;4757054;30;20055;-86
2022/05/31 21:49:49;;;;;;;12.90;6.50;;;12.10;99.90;;;;;;4757295;30;20501;-86
2022/05/31 21:52:33;;;;;;;11.50;6.85;;;11.60;99.90;;;;;;4758311;30;20067;-86
2022/05/31 21:58:21;;;;;;;11.90;6.80;;;11.50;99.90;;;;;;4768553;30;20066;-87
2022/05/31 22:00:48;;;;;;;12.50;7.28;;;11.60;99.90;;;;;;4771958;30;20382;-87
2022/05/31 22:03:33;;;;;;;12.50;6.78;;;12.50;99.90;;;;;;4770661;30;20100;-87
2022/05/31 22:09:29;;;;;;;12.50;7.40;;;12.70;99.90;;;;;;4768533;30;20056;-87
2022/05/31 22:15:21;;;;;;;13.70;7.28;;;13.00;99.90;;;;;;4771674;30;20060;-87
2022/05/31 22:17:59;;;;;;;12.23;6.97;;;11.70;99.90;;;;;;4770361;30;20047;-87
2022/05/31 22:20:37;;;;;;;13.20;7.05;;;12.30;99.90;;;;;;4769855;30;20129;-87
2022/05/31 22:23:40;;;;;;;12.07;7.18;;;11.60;99.90;;;;;;4771135;30;20062;-87
2022/05/31 22:29:37;;;;;;;15.93;7.65;;;11.50;99.90;;;;;;4771244;30;20132;-87
2022/05/31 22:32:18;;;;;;;12.75;7.10;;;12.20;99.90;;;;;;4770627;29;20044;-87
2022/05/31 22:34:59;;;;;;;14.05;7.70;;;12.20;99.90;;;;;;4770476;29;20616;-87
2022/05/31 22:40:57;;;;;;;13.00;7.78;;;11.10;99.90;;;;;;4647657;30;20059;-87
2022/05/31 22:47:39;;;;;;;13.80;8.55;;;11.40;99.90;;;;;;4716590;30;20060;-87
2022/05/31 22:50:35;;;;;;;14.85;9.32;;;11.40;99.90;;;;;;4690075;30;20065;-87
2022/05/31 22:53:40;;;;;;;;;;;;;;;;;;;;;
2022/05/31 22:56:50;;;;;;;17.63;10.98;;;11.50;99.90;;;;;;4679678;30;20089;-87
2022/05/31 22:59:52;;;;;;;15.30;10.57;;;11.60;99.90;;;;;;4666634;30;20069;-88
2022/05/31 23:02:27;;;;;;;17.65;11.65;;;11.70;99.90;;;;;;4667108;30;20058;-87
2022/05/31 23:16:51;;;;;;;19.13;12.15;;;11.90;99.90;;;;;;4747611;30;20055;-88
2022/05/31 23:19:35;;;;;;;18.48;12.23;;;11.80;99.90;;;;;;4735621;30;20175;-88
2022/05/31 23:25:48;;;;;;;17.70;12.43;;;13.20;99.90;;;;;;4736070;30;20089;-88
2022/05/31 23:28:43;;;;;;;17.00;12.02;;;11.60;99.90;;;;;;4736527;30;20048;-88
2022/05/31 23:35:20;;;;;;;17.77;11.32;;;11.90;99.90;;;;;;4714703;30;20154;-88
2022/05/31 23:38:14;;;;;;;19.20;11.98;;;11.90;99.90;;;;;;4750345;30;20066;-88
2022/05/31 23:41:11;;;;;;;18.27;12.57;;;13.00;99.90;;;;;;4768858;30;20089;-88
2022/05/31 23:47:28;;;;;;;19.83;12.48;;;11.50;99.90;;;;;;4769693;30;20067;-88
2022/05/31 23:50:18;;;;;;;16.83;12.20;;;12.70;99.90;;;;;;4768812;30;20109;-87
2022/05/31 23:53:15;;;;;;;20.35;13.30;;;11.80;99.90;;;;;;4768897;30;20059;-88
2022/05/31 23:59:26;;;;;;;20.75;12.80;;;12.40;99.90;;;;;;4765868;30;20055;-88
